sensor_id;sensor_type;location;lat;lon;timestamp;temperature;humidity
25550;DHT22;13444;50.562;7.262;2022-09-24T00:00:42;11.40;99.90
25550;DHT22;13444;50.562;7.262;2022-09-24T00:03:08;11.20;99.90
25550;DHT22;13444;50.562;7.262;2022-09-24T00:05:38;11.10;99.90
25550;DHT22;13444;50.562;7.262;2022-09-24T00:08:05;11.00;99.90
25550;DHT22;13444;50.562;7.262;2022-09-24T00:10:30;11.00;99.90
25550;DHT22;13444;50.562;7.262;2022-09-24T00:12:56;11.10;99.90
25550;DHT22;13444;50.562;7.262;2022-09-24T00:15:21;11.10;99.90
25550;DHT22;13444;50.562;7.262;2022-09-24T00:17:47;11.10;99.90
25550;DHT22;13444;50.562;7.262;2022-09-24T00:20:12;11.00;99.90
25550;DHT22;13444;50.562;7.262;2022-09-24T00:22:38;10.90;99.90
25550;DHT22;13444;50.562;7.262;2022-09-24T00:25:03;10.90;99.90
25550;DHT22;13444;50.562;7.262;2022-09-24T00:27:48;10.90;99.90
25550;DHT22;13444;50.562;7.262;2022-09-24T00:30:13;10.80;99.90
25550;DHT22;13444;50.562;7.262;2022-09-24T00:32:39;10.70;99.90
25550;DHT22;13444;50.562;7.262;2022-09-24T00:35:04;10.60;99.90
25550;DHT22;13444;50.562;7.262;2022-09-24T00:37:31;10.60;99.90
25550;DHT22;13444;50.562;7.262;2022-09-24T00:39:56;10.50;99.90
25550;DHT22;13444;50.562;7.262;2022-09-24T00:42:22;10.50;99.90
25550;DHT22;13444;50.562;7.262;2022-09-24T00:44:50;10.40;99.90
25550;DHT22;13444;50.562;7.262;2022-09-24T00:47:30;10.40;99.90
25550;DHT22;13444;50.562;7.262;2022-09-24T00:50:05;10.50;99.90
25550;DHT22;13444;50.562;7.262;2022-09-24T00:52:34;10.40;99.90
25550;DHT22;13444;50.562;7.262;2022-09-24T00:55:01;10.40;99.90
25550;DHT22;13444;50.562;7.262;2022-09-24T00:57:26;10.50;99.90
25550;DHT22;13444;50.562;7.262;2022-09-24T00:59:52;10.50;99.90
25550;DHT22;13444;50.562;7.262;2022-09-24T01:02:20;10.40;99.90
25550;DHT22;13444;50.562;7.262;2022-09-24T01:04:45;10.40;99.90
25550;DHT22;13444;50.562;7.262;2022-09-24T01:07:11;10.30;99.90
25550;DHT22;13444;50.562;7.262;2022-09-24T01:09:36;10.40;99.90
25550;DHT22;13444;50.562;7.262;2022-09-24T01:12:27;10.30;99.90
25550;DHT22;13444;50.562;7.262;2022-09-24T01:17:46;10.40;99.90
25550;DHT22;13444;50.562;7.262;2022-09-24T01:27:00;10.30;99.90
25550;DHT22;13444;50.562;7.262;2022-09-24T01:31:40;10.30;99.90
25550;DHT22;13444;50.562;7.262;2022-09-24T01:34:09;10.30;99.90
25550;DHT22;13444;50.562;7.262;2022-09-24T01:36:39;10.20;99.90
25550;DHT22;13444;50.562;7.262;2022-09-24T01:39:07;10.20;99.90
25550;DHT22;13444;50.562;7.262;2022-09-24T01:41:35;10.10;99.90
25550;DHT22;13444;50.562;7.262;2022-09-24T01:44:01;10.10;99.90
25550;DHT22;13444;50.562;7.262;2022-09-24T01:46:32;10.10;99.90
25550;DHT22;13444;50.562;7.262;2022-09-24T01:48:58;10.20;99.90
25550;DHT22;13444;50.562;7.262;2022-09-24T01:51:32;10.10;99.90
25550;DHT22;13444;50.562;7.262;2022-09-24T01:54:02;10.10;99.90
25550;DHT22;13444;50.562;7.262;2022-09-24T01:56:40;10.10;99.90
25550;DHT22;13444;50.562;7.262;2022-09-24T01:59:23;10.00;99.90
25550;DHT22;13444;50.562;7.262;2022-09-24T02:02:10;9.90;99.90
25550;DHT22;13444;50.562;7.262;2022-09-24T02:04:41;9.90;99.90
25550;DHT22;13444;50.562;7.262;2022-09-24T02:07:23;9.80;99.90
25550;DHT22;13444;50.562;7.262;2022-09-24T02:09:49;9.70;99.90
25550;DHT22;13444;50.562;7.262;2022-09-24T02:12:24;9.70;99.90
25550;DHT22;13444;50.562;7.262;2022-09-24T02:14:56;9.70;99.90
25550;DHT22;13444;50.562;7.262;2022-09-24T02:17:28;9.60;99.90
25550;DHT22;13444;50.562;7.262;2022-09-24T02:19:55;9.60;99.90
25550;DHT22;13444;50.562;7.262;2022-09-24T02:22:23;9.60;99.90
25550;DHT22;13444;50.562;7.262;2022-09-24T02:24:53;9.60;99.90
25550;DHT22;13444;50.562;7.262;2022-09-24T02:27:19;9.60;99.90
25550;DHT22;13444;50.562;7.262;2022-09-24T02:29:46;9.60;99.90
25550;DHT22;13444;50.562;7.262;2022-09-24T02:32:15;9.60;99.90
25550;DHT22;13444;50.562;7.262;2022-09-24T02:34:46;9.50;99.90
25550;DHT22;13444;50.562;7.262;2022-09-24T02:37:15;9.50;99.90
25550;DHT22;13444;50.562;7.262;2022-09-24T02:39:41;9.60;99.90
25550;DHT22;13444;50.562;7.262;2022-09-24T02:42:09;9.60;99.90
25550;DHT22;13444;50.562;7.262;2022-09-24T02:44:35;9.50;99.90
25550;DHT22;13444;50.562;7.262;2022-09-24T02:47:01;9.50;99.90
25550;DHT22;13444;50.562;7.262;2022-09-24T02:49:27;9.50;99.90
25550;DHT22;13444;50.562;7.262;2022-09-24T02:51:53;9.60;99.90
25550;DHT22;13444;50.562;7.262;2022-09-24T02:54:19;9.60;99.90
25550;DHT22;13444;50.562;7.262;2022-09-24T02:56:44;9.60;99.90
25550;DHT22;13444;50.562;7.262;2022-09-24T02:59:10;9.50;99.90
25550;DHT22;13444;50.562;7.262;2022-09-24T03:01:36;9.50;99.90
25550;DHT22;13444;50.562;7.262;2022-09-24T03:04:02;9.50;99.90
25550;DHT22;13444;50.562;7.262;2022-09-24T03:06:29;9.40;99.90
25550;DHT22;13444;50.562;7.262;2022-09-24T03:08:55;9.40;99.90
25550;DHT22;13444;50.562;7.262;2022-09-24T03:11:21;9.40;99.90
25550;DHT22;13444;50.562;7.262;2022-09-24T03:13:48;9.40;99.90
25550;DHT22;13444;50.562;7.262;2022-09-24T03:16:14;9.40;99.90
25550;DHT22;13444;50.562;7.262;2022-09-24T03:18:40;9.40;99.90
25550;DHT22;13444;50.562;7.262;2022-09-24T03:21:07;9.40;99.90
25550;DHT22;13444;50.562;7.262;2022-09-24T03:23:34;9.40;99.90
25550;DHT22;13444;50.562;7.262;2022-09-24T03:26:00;9.40;99.90
25550;DHT22;13444;50.562;7.262;2022-09-24T03:28:26;9.50;99.90
25550;DHT22;13444;50.562;7.262;2022-09-24T03:30:52;9.50;99.90
25550;DHT22;13444;50.562;7.262;2022-09-24T03:33:36;9.60;99.90
25550;DHT22;13444;50.562;7.262;2022-09-24T03:36:20;9.60;99.90
25550;DHT22;13444;50.562;7.262;2022-09-24T03:38:48;9.60;99.90
25550;DHT22;13444;50.562;7.262;2022-09-24T03:41:15;9.70;99.90
25550;DHT22;13444;50.562;7.262;2022-09-24T03:43:41;9.80;99.90
25550;DHT22;13444;50.562;7.262;2022-09-24T03:46:08;9.90;99.90
25550;DHT22;13444;50.562;7.262;2022-09-24T03:48:35;9.90;99.90
25550;DHT22;13444;50.562;7.262;2022-09-24T03:51:11;9.80;99.90
25550;DHT22;13444;50.562;7.262;2022-09-24T03:53:37;9.90;99.90
25550;DHT22;13444;50.562;7.262;2022-09-24T03:56:04;9.90;99.90
25550;DHT22;13444;50.562;7.262;2022-09-24T03:58:31;10.00;99.90
25550;DHT22;13444;50.562;7.262;2022-09-24T04:00:58;10.00;99.90
25550;DHT22;13444;50.562;7.262;2022-09-24T04:03:24;10.00;99.90
25550;DHT22;13444;50.562;7.262;2022-09-24T04:05:50;10.10;99.90
25550;DHT22;13444;50.562;7.262;2022-09-24T04:08:20;10.10;99.90
25550;DHT22;13444;50.562;7.262;2022-09-24T04:10:49;10.10;99.90
25550;DHT22;13444;50.562;7.262;2022-09-24T04:13:15;10.10;99.90
25550;DHT22;13444;50.562;7.262;2022-09-24T04:15:41;10.20;99.90
25550;DHT22;13444;50.562;7.262;2022-09-24T04:18:07;10.20;99.90
25550;DHT22;13444;50.562;7.262;2022-09-24T04:20:33;10.10;99.90
25550;DHT22;13444;50.562;7.262;2022-09-24T04:22:59;10.10;99.90
25550;DHT22;13444;50.562;7.262;2022-09-24T04:25:27;10.10;99.90
25550;DHT22;13444;50.562;7.262;2022-09-24T04:27:56;10.00;99.90
25550;DHT22;13444;50.562;7.262;2022-09-24T04:30:23;10.10;99.90
25550;DHT22;13444;50.562;7.262;2022-09-24T04:32:49;10.10;99.90
25550;DHT22;13444;50.562;7.262;2022-09-24T04:35:18;10.10;99.90
25550;DHT22;13444;50.562;7.262;2022-09-24T04:37:45;10.10;99.90
25550;DHT22;13444;50.562;7.262;2022-09-24T04:40:11;10.00;99.90
25550;DHT22;13444;50.562;7.262;2022-09-24T04:42:37;10.00;99.90
25550;DHT22;13444;50.562;7.262;2022-09-24T04:45:05;10.00;99.90
25550;DHT22;13444;50.562;7.262;2022-09-24T04:47:30;10.10;99.90
25550;DHT22;13444;50.562;7.262;2022-09-24T04:49:56;10.00;99.90
25550;DHT22;13444;50.562;7.262;2022-09-24T04:52:21;10.00;99.90
25550;DHT22;13444;50.562;7.262;2022-09-24T04:54:51;9.90;99.90
25550;DHT22;13444;50.562;7.262;2022-09-24T04:57:16;9.90;99.90
25550;DHT22;13444;50.562;7.262;2022-09-24T04:59:42;9.90;99.90
25550;DHT22;13444;50.562;7.262;2022-09-24T05:02:09;9.90;99.90
25550;DHT22;13444;50.562;7.262;2022-09-24T05:04:35;9.90;99.90
25550;DHT22;13444;50.562;7.262;2022-09-24T05:07:02;9.90;99.90
25550;DHT22;13444;50.562;7.262;2022-09-24T05:09:28;9.90;99.90
25550;DHT22;13444;50.562;7.262;2022-09-24T05:11:58;9.90;99.90
25550;DHT22;13444;50.562;7.262;2022-09-24T05:14:24;10.00;99.90
25550;DHT22;13444;50.562;7.262;2022-09-24T05:16:49;10.00;99.90
25550;DHT22;13444;50.562;7.262;2022-09-24T05:19:15;10.00;99.90
25550;DHT22;13444;50.562;7.262;2022-09-24T05:21:41;10.00;99.90
25550;DHT22;13444;50.562;7.262;2022-09-24T05:24:06;10.10;99.90
25550;DHT22;13444;50.562;7.262;2022-09-24T05:26:32;10.10;99.90
25550;DHT22;13444;50.562;7.262;2022-09-24T05:29:16;10.20;99.90
25550;DHT22;13444;50.562;7.262;2022-09-24T05:31:42;10.20;99.90
25550;DHT22;13444;50.562;7.262;2022-09-24T05:34:07;10.20;99.90
25550;DHT22;13444;50.562;7.262;2022-09-24T05:36:33;10.20;99.90
25550;DHT22;13444;50.562;7.262;2022-09-24T05:38:58;10.20;99.90
25550;DHT22;13444;50.562;7.262;2022-09-24T05:41:24;10.20;99.90
25550;DHT22;13444;50.562;7.262;2022-09-24T05:43:49;10.20;99.90
25550;DHT22;13444;50.562;7.262;2022-09-24T05:46:15;10.20;99.90
25550;DHT22;13444;50.562;7.262;2022-09-24T05:48:41;10.10;99.90
25550;DHT22;13444;50.562;7.262;2022-09-24T05:51:06;10.10;99.90
25550;DHT22;13444;50.562;7.262;2022-09-24T05:53:32;10.10;99.90
25550;DHT22;13444;50.562;7.262;2022-09-24T05:55:59;10.10;99.90
25550;DHT22;13444;50.562;7.262;2022-09-24T05:58:25;10.10;99.90
25550;DHT22;13444;50.562;7.262;2022-09-24T06:00:50;10.10;99.90
25550;DHT22;13444;50.562;7.262;2022-09-24T06:03:17;10.20;99.90
25550;DHT22;13444;50.562;7.262;2022-09-24T06:05:44;10.20;99.90
25550;DHT22;13444;50.562;7.262;2022-09-24T06:08:11;10.30;99.90
25550;DHT22;13444;50.562;7.262;2022-09-24T06:10:36;10.30;99.90
25550;DHT22;13444;50.562;7.262;2022-09-24T06:13:02;10.40;99.90
25550;DHT22;13444;50.562;7.262;2022-09-24T06:15:28;10.40;99.90
25550;DHT22;13444;50.562;7.262;2022-09-24T06:17:55;10.40;99.90
25550;DHT22;13444;50.562;7.262;2022-09-24T06:20:21;10.40;99.90
25550;DHT22;13444;50.562;7.262;2022-09-24T06:22:47;10.40;99.90
25550;DHT22;13444;50.562;7.262;2022-09-24T06:25:13;10.40;99.90
25550;DHT22;13444;50.562;7.262;2022-09-24T06:27:39;10.40;99.90
25550;DHT22;13444;50.562;7.262;2022-09-24T06:30:05;10.40;99.90
25550;DHT22;13444;50.562;7.262;2022-09-24T06:32:31;10.50;99.90
25550;DHT22;13444;50.562;7.262;2022-09-24T06:34:56;10.50;99.90
25550;DHT22;13444;50.562;7.262;2022-09-24T06:37:22;10.50;99.90
25550;DHT22;13444;50.562;7.262;2022-09-24T06:39:47;10.60;99.90
25550;DHT22;13444;50.562;7.262;2022-09-24T06:42:13;10.60;99.90
25550;DHT22;13444;50.562;7.262;2022-09-24T06:44:38;10.60;99.90
25550;DHT22;13444;50.562;7.262;2022-09-24T06:47:04;10.70;99.90
25550;DHT22;13444;50.562;7.262;2022-09-24T06:49:29;10.70;99.90
25550;DHT22;13444;50.562;7.262;2022-09-24T06:51:56;10.80;99.90
25550;DHT22;13444;50.562;7.262;2022-09-24T06:54:23;10.80;99.90
25550;DHT22;13444;50.562;7.262;2022-09-24T06:56:48;10.90;99.90
25550;DHT22;13444;50.562;7.262;2022-09-24T06:59:14;10.90;99.90
25550;DHT22;13444;50.562;7.262;2022-09-24T07:01:40;11.00;99.90
25550;DHT22;13444;50.562;7.262;2022-09-24T07:04:05;11.10;99.90
25550;DHT22;13444;50.562;7.262;2022-09-24T07:06:33;11.20;99.90
25550;DHT22;13444;50.562;7.262;2022-09-24T07:09:19;11.30;99.90
25550;DHT22;13444;50.562;7.262;2022-09-24T07:11:44;11.40;99.90
25550;DHT22;13444;50.562;7.262;2022-09-24T07:14:11;11.50;99.90
25550;DHT22;13444;50.562;7.262;2022-09-24T07:16:37;11.60;99.90
25550;DHT22;13444;50.562;7.262;2022-09-24T07:19:03;11.70;99.90
25550;DHT22;13444;50.562;7.262;2022-09-24T07:21:28;11.80;99.90
25550;DHT22;13444;50.562;7.262;2022-09-24T07:23:54;11.90;99.90
25550;DHT22;13444;50.562;7.262;2022-09-24T07:26:19;12.00;99.90
25550;DHT22;13444;50.562;7.262;2022-09-24T07:28:45;12.00;99.90
25550;DHT22;13444;50.562;7.262;2022-09-24T07:31:10;12.00;99.90
25550;DHT22;13444;50.562;7.262;2022-09-24T07:33:36;12.00;99.90
25550;DHT22;13444;50.562;7.262;2022-09-24T07:36:05;12.00;99.90
25550;DHT22;13444;50.562;7.262;2022-09-24T07:38:34;12.00;99.90
25550;DHT22;13444;50.562;7.262;2022-09-24T07:41:00;12.10;99.90
25550;DHT22;13444;50.562;7.262;2022-09-24T07:43:28;12.20;99.90
25550;DHT22;13444;50.562;7.262;2022-09-24T07:45:53;12.30;99.90
25550;DHT22;13444;50.562;7.262;2022-09-24T07:48:19;12.40;99.90
25550;DHT22;13444;50.562;7.262;2022-09-24T07:50:46;12.50;99.90
25550;DHT22;13444;50.562;7.262;2022-09-24T07:53:12;12.50;99.90
25550;DHT22;13444;50.562;7.262;2022-09-24T07:55:38;12.60;99.90
25550;DHT22;13444;50.562;7.262;2022-09-24T07:58:14;12.60;99.90
25550;DHT22;13444;50.562;7.262;2022-09-24T08:00:41;12.60;99.90
25550;DHT22;13444;50.562;7.262;2022-09-24T08:03:07;12.80;99.90
25550;DHT22;13444;50.562;7.262;2022-09-24T08:05:32;13.00;99.90
25550;DHT22;13444;50.562;7.262;2022-09-24T08:07:59;13.10;99.90
25550;DHT22;13444;50.562;7.262;2022-09-24T08:10:26;13.20;99.90
25550;DHT22;13444;50.562;7.262;2022-09-24T08:12:52;13.30;99.90
25550;DHT22;13444;50.562;7.262;2022-09-24T08:15:18;13.30;99.90
25550;DHT22;13444;50.562;7.262;2022-09-24T08:17:44;13.30;99.90
25550;DHT22;13444;50.562;7.262;2022-09-24T08:20:10;13.40;99.90
25550;DHT22;13444;50.562;7.262;2022-09-24T08:22:36;13.60;99.90
25550;DHT22;13444;50.562;7.262;2022-09-24T08:25:02;13.90;99.90
25550;DHT22;13444;50.562;7.262;2022-09-24T08:27:28;14.30;99.90
25550;DHT22;13444;50.562;7.262;2022-09-24T08:29:54;14.70;99.90
25550;DHT22;13444;50.562;7.262;2022-09-24T08:32:22;15.00;99.90
25550;DHT22;13444;50.562;7.262;2022-09-24T08:34:47;15.20;99.90
25550;DHT22;13444;50.562;7.262;2022-09-24T08:37:13;15.20;99.90
25550;DHT22;13444;50.562;7.262;2022-09-24T08:39:38;15.30;99.90
25550;DHT22;13444;50.562;7.262;2022-09-24T08:42:06;15.40;99.90
25550;DHT22;13444;50.562;7.262;2022-09-24T08:44:38;15.50;99.90
25550;DHT22;13444;50.562;7.262;2022-09-24T08:50:05;15.70;99.90
25550;DHT22;13444;50.562;7.262;2022-09-24T08:52:52;15.60;99.90
25550;DHT22;13444;50.562;7.262;2022-09-24T09:00:31;15.80;99.90
25550;DHT22;13444;50.562;7.262;2022-09-24T09:03:05;15.90;99.90
25550;DHT22;13444;50.562;7.262;2022-09-24T09:05:58;15.90;99.90
25550;DHT22;13444;50.562;7.262;2022-09-24T09:11:15;16.00;99.90
25550;DHT22;13444;50.562;7.262;2022-09-24T09:13:51;16.10;99.90
25550;DHT22;13444;50.562;7.262;2022-09-24T09:19:08;16.50;99.90
25550;DHT22;13444;50.562;7.262;2022-09-24T09:21:45;16.90;99.90
25550;DHT22;13444;50.562;7.262;2022-09-24T09:24:24;17.50;99.90
25550;DHT22;13444;50.562;7.262;2022-09-24T09:26:54;17.90;99.90
25550;DHT22;13444;50.562;7.262;2022-09-24T09:29:21;17.90;99.90
25550;DHT22;13444;50.562;7.262;2022-09-24T09:32:07;18.10;99.90
25550;DHT22;13444;50.562;7.262;2022-09-24T09:35:01;18.00;99.90
25550;DHT22;13444;50.562;7.262;2022-09-24T09:37:43;17.90;99.90
25550;DHT22;13444;50.562;7.262;2022-09-24T09:43:06;17.80;99.90
25550;DHT22;13444;50.562;7.262;2022-09-24T09:48:23;17.50;99.90
25550;DHT22;13444;50.562;7.262;2022-09-24T09:50:54;17.40;99.90
25550;DHT22;13444;50.562;7.262;2022-09-24T09:53:28;17.40;99.90
25550;DHT22;13444;50.562;7.262;2022-09-24T09:56:01;17.30;99.90
25550;DHT22;13444;50.562;7.262;2022-09-24T09:58:35;17.20;99.90
25550;DHT22;13444;50.562;7.262;2022-09-24T10:01:28;17.10;99.90
25550;DHT22;13444;50.562;7.262;2022-09-24T10:03:57;17.00;99.90
25550;DHT22;13444;50.562;7.262;2022-09-24T10:06:32;17.00;99.90
25550;DHT22;13444;50.562;7.262;2022-09-24T10:09:14;17.00;99.90
25550;DHT22;13444;50.562;7.262;2022-09-24T10:11:40;17.00;99.90
25550;DHT22;13444;50.562;7.262;2022-09-24T10:14:10;17.00;99.90
25550;DHT22;13444;50.562;7.262;2022-09-24T10:16:42;17.10;99.90
25550;DHT22;13444;50.562;7.262;2022-09-24T10:19:25;17.10;99.90
25550;DHT22;13444;50.562;7.262;2022-09-24T10:21:54;17.30;99.90
25550;DHT22;13444;50.562;7.262;2022-09-24T10:24:24;17.30;99.90
25550;DHT22;13444;50.562;7.262;2022-09-24T10:26:50;17.30;99.90
25550;DHT22;13444;50.562;7.262;2022-09-24T10:29:20;17.30;99.90
25550;DHT22;13444;50.562;7.262;2022-09-24T10:32:12;17.30;99.90
25550;DHT22;13444;50.562;7.262;2022-09-24T10:34:38;17.30;99.90
25550;DHT22;13444;50.562;7.262;2022-09-24T10:37:14;17.40;99.90
25550;DHT22;13444;50.562;7.262;2022-09-24T10:39:40;17.40;99.90
25550;DHT22;13444;50.562;7.262;2022-09-24T10:42:25;17.50;99.90
25550;DHT22;13444;50.562;7.262;2022-09-24T10:44:52;17.60;99.90
25550;DHT22;13444;50.562;7.262;2022-09-24T10:47:24;17.70;99.90
25550;DHT22;13444;50.562;7.262;2022-09-24T10:52:50;18.00;99.90
25550;DHT22;13444;50.562;7.262;2022-09-24T10:57:52;18.20;99.90
25550;DHT22;13444;50.562;7.262;2022-09-24T11:00:22;18.20;99.90
25550;DHT22;13444;50.562;7.262;2022-09-24T11:03:01;18.20;99.90
25550;DHT22;13444;50.562;7.262;2022-09-24T11:05:55;18.30;99.90
25550;DHT22;13444;50.562;7.262;2022-09-24T11:08:56;18.30;99.90
25550;DHT22;13444;50.562;7.262;2022-09-24T11:14:23;18.40;99.90
25550;DHT22;13444;50.562;7.262;2022-09-24T11:23:06;18.60;99.90
25550;DHT22;13444;50.562;7.262;2022-09-24T11:31:43;18.80;99.90
25550;DHT22;13444;50.562;7.262;2022-09-24T11:34:38;19.10;99.90
25550;DHT22;13444;50.562;7.262;2022-09-24T11:37:32;19.50;99.90
25550;DHT22;13444;50.562;7.262;2022-09-24T11:48:46;20.10;99.90
25550;DHT22;13444;50.562;7.262;2022-09-24T11:57:01;19.50;99.90
25550;DHT22;13444;50.562;7.262;2022-09-24T11:59:52;19.50;99.90
25550;DHT22;13444;50.562;7.262;2022-09-24T12:05:34;19.50;99.90
25550;DHT22;13444;50.562;7.262;2022-09-24T12:10:59;19.80;99.90
25550;DHT22;13444;50.562;7.262;2022-09-24T12:13:40;19.90;99.90
25550;DHT22;13444;50.562;7.262;2022-09-24T12:16:16;20.10;99.90
25550;DHT22;13444;50.562;7.262;2022-09-24T12:18:53;20.10;99.90
25550;DHT22;13444;50.562;7.262;2022-09-24T12:21:40;20.10;99.90
25550;DHT22;13444;50.562;7.262;2022-09-24T12:26:38;19.90;99.90
25550;DHT22;13444;50.562;7.262;2022-09-24T12:32:32;19.70;99.90
25550;DHT22;13444;50.562;7.262;2022-09-24T12:38:02;19.50;99.90
25550;DHT22;13444;50.562;7.262;2022-09-24T12:41:02;19.60;99.90
25550;DHT22;13444;50.562;7.262;2022-09-24T12:43:43;19.60;99.90
25550;DHT22;13444;50.562;7.262;2022-09-24T12:46:19;19.60;99.90
25550;DHT22;13444;50.562;7.262;2022-09-24T12:48:47;19.60;99.90
25550;DHT22;13444;50.562;7.262;2022-09-24T12:51:14;19.50;99.90
25550;DHT22;13444;50.562;7.262;2022-09-24T12:53:42;19.40;99.90
25550;DHT22;13444;50.562;7.262;2022-09-24T12:56:26;19.30;99.90
25550;DHT22;13444;50.562;7.262;2022-09-24T12:58:54;19.20;99.90
25550;DHT22;13444;50.562;7.262;2022-09-24T13:04:25;19.10;99.90
25550;DHT22;13444;50.562;7.262;2022-09-24T13:06:51;19.10;99.90
25550;DHT22;13444;50.562;7.262;2022-09-24T13:09:33;18.90;99.90
25550;DHT22;13444;50.562;7.262;2022-09-24T13:14:54;18.90;99.90
25550;DHT22;13444;50.562;7.262;2022-09-24T13:17:21;18.80;99.90
25550;DHT22;13444;50.562;7.262;2022-09-24T13:19:48;18.80;99.90
25550;DHT22;13444;50.562;7.262;2022-09-24T13:25:03;18.70;99.90
25550;DHT22;13444;50.562;7.262;2022-09-24T13:32:37;18.50;99.90
25550;DHT22;13444;50.562;7.262;2022-09-24T13:35:14;18.50;99.90
25550;DHT22;13444;50.562;7.262;2022-09-24T13:37:45;18.50;99.90
25550;DHT22;13444;50.562;7.262;2022-09-24T13:40:18;18.40;99.90
25550;DHT22;13444;50.562;7.262;2022-09-24T13:45:45;18.30;99.90
25550;DHT22;13444;50.562;7.262;2022-09-24T13:48:28;18.30;99.90
25550;DHT22;13444;50.562;7.262;2022-09-24T13:50:55;18.20;99.90
25550;DHT22;13444;50.562;7.262;2022-09-24T13:53:31;18.10;99.90
25550;DHT22;13444;50.562;7.262;2022-09-24T13:56:03;18.10;99.90
25550;DHT22;13444;50.562;7.262;2022-09-24T13:58:33;18.10;99.90
25550;DHT22;13444;50.562;7.262;2022-09-24T14:01:05;18.10;99.90
25550;DHT22;13444;50.562;7.262;2022-09-24T14:03:33;18.10;99.90
25550;DHT22;13444;50.562;7.262;2022-09-24T14:06:00;18.00;99.90
25550;DHT22;13444;50.562;7.262;2022-09-24T14:08:27;18.00;99.90
25550;DHT22;13444;50.562;7.262;2022-09-24T14:11:22;17.90;99.90
25550;DHT22;13444;50.562;7.262;2022-09-24T14:13:49;17.90;99.90
25550;DHT22;13444;50.562;7.262;2022-09-24T14:16:17;17.80;99.90
25550;DHT22;13444;50.562;7.262;2022-09-24T14:18:43;17.80;99.90
25550;DHT22;13444;50.562;7.262;2022-09-24T14:21:22;17.80;99.90
25550;DHT22;13444;50.562;7.262;2022-09-24T14:24:03;17.80;99.90
25550;DHT22;13444;50.562;7.262;2022-09-24T14:29:04;17.70;99.90
25550;DHT22;13444;50.562;7.262;2022-09-24T14:31:31;17.60;99.90
25550;DHT22;13444;50.562;7.262;2022-09-24T14:33:59;17.60;99.90
25550;DHT22;13444;50.562;7.262;2022-09-24T14:36:29;17.60;99.90
25550;DHT22;13444;50.562;7.262;2022-09-24T14:39:02;17.60;99.90
25550;DHT22;13444;50.562;7.262;2022-09-24T14:41:34;17.60;99.90
25550;DHT22;13444;50.562;7.262;2022-09-24T14:44:05;17.50;99.90
25550;DHT22;13444;50.562;7.262;2022-09-24T14:46:35;17.50;99.90
25550;DHT22;13444;50.562;7.262;2022-09-24T14:49:16;17.50;99.90
25550;DHT22;13444;50.562;7.262;2022-09-24T14:51:51;17.50;99.90
25550;DHT22;13444;50.562;7.262;2022-09-24T14:54:22;17.50;99.90
25550;DHT22;13444;50.562;7.262;2022-09-24T14:56:50;17.50;99.90
25550;DHT22;13444;50.562;7.262;2022-09-24T14:59:27;17.50;99.90
25550;DHT22;13444;50.562;7.262;2022-09-24T15:02:09;17.50;99.90
25550;DHT22;13444;50.562;7.262;2022-09-24T15:04:39;17.40;99.90
25550;DHT22;13444;50.562;7.262;2022-09-24T15:07:18;17.50;99.90
25550;DHT22;13444;50.562;7.262;2022-09-24T15:09:51;17.40;99.90
25550;DHT22;13444;50.562;7.262;2022-09-24T15:12:29;17.40;99.90
25550;DHT22;13444;50.562;7.262;2022-09-24T15:14:58;17.30;99.90
25550;DHT22;13444;50.562;7.262;2022-09-24T15:17:33;17.30;99.90
25550;DHT22;13444;50.562;7.262;2022-09-24T15:19:59;17.30;99.90
25550;DHT22;13444;50.562;7.262;2022-09-24T15:22:26;17.30;99.90
25550;DHT22;13444;50.562;7.262;2022-09-24T15:24:57;17.30;99.90
25550;DHT22;13444;50.562;7.262;2022-09-24T15:27:24;17.20;99.90
25550;DHT22;13444;50.562;7.262;2022-09-24T15:29:58;17.20;99.90
25550;DHT22;13444;50.562;7.262;2022-09-24T15:32:26;17.10;99.90
25550;DHT22;13444;50.562;7.262;2022-09-24T15:34:52;17.10;99.90
25550;DHT22;13444;50.562;7.262;2022-09-24T15:37:23;17.00;99.90
25550;DHT22;13444;50.562;7.262;2022-09-24T15:39:50;17.10;99.90
25550;DHT22;13444;50.562;7.262;2022-09-24T15:42:18;17.00;99.90
25550;DHT22;13444;50.562;7.262;2022-09-24T15:44:43;17.00;99.90
25550;DHT22;13444;50.562;7.262;2022-09-24T15:47:10;16.90;99.90
25550;DHT22;13444;50.562;7.262;2022-09-24T15:49:36;16.90;99.90
25550;DHT22;13444;50.562;7.262;2022-09-24T15:52:12;16.90;99.90
25550;DHT22;13444;50.562;7.262;2022-09-24T15:54:38;16.80;99.90
25550;DHT22;13444;50.562;7.262;2022-09-24T15:57:03;16.80;99.90
25550;DHT22;13444;50.562;7.262;2022-09-24T15:59:29;16.70;99.90
25550;DHT22;13444;50.562;7.262;2022-09-24T16:02:00;16.70;99.90
25550;DHT22;13444;50.562;7.262;2022-09-24T16:04:27;16.70;99.90
25550;DHT22;13444;50.562;7.262;2022-09-24T16:06:53;16.70;99.90
25550;DHT22;13444;50.562;7.262;2022-09-24T16:09:18;16.60;99.90
25550;DHT22;13444;50.562;7.262;2022-09-24T16:11:44;16.60;99.90
25550;DHT22;13444;50.562;7.262;2022-09-24T16:14:10;16.60;99.90
25550;DHT22;13444;50.562;7.262;2022-09-24T16:16:38;16.60;99.90
25550;DHT22;13444;50.562;7.262;2022-09-24T16:19:04;16.60;99.90
25550;DHT22;13444;50.562;7.262;2022-09-24T16:21:31;16.60;99.90
25550;DHT22;13444;50.562;7.262;2022-09-24T16:23:57;16.50;99.90
25550;DHT22;13444;50.562;7.262;2022-09-24T16:26:24;16.40;99.90
25550;DHT22;13444;50.562;7.262;2022-09-24T16:28:50;16.40;99.90
25550;DHT22;13444;50.562;7.262;2022-09-24T16:31:17;16.40;99.90
25550;DHT22;13444;50.562;7.262;2022-09-24T16:33:43;16.40;99.90
25550;DHT22;13444;50.562;7.262;2022-09-24T16:36:10;16.30;99.90
25550;DHT22;13444;50.562;7.262;2022-09-24T16:38:37;16.30;99.90
25550;DHT22;13444;50.562;7.262;2022-09-24T16:41:04;16.20;99.90
25550;DHT22;13444;50.562;7.262;2022-09-24T16:43:30;16.20;99.90
25550;DHT22;13444;50.562;7.262;2022-09-24T16:46:08;16.10;99.90
25550;DHT22;13444;50.562;7.262;2022-09-24T16:48:35;16.10;99.90
25550;DHT22;13444;50.562;7.262;2022-09-24T16:51:04;16.10;99.90
25550;DHT22;13444;50.562;7.262;2022-09-24T16:53:30;16.10;99.90
25550;DHT22;13444;50.562;7.262;2022-09-24T16:56:12;16.10;99.90
25550;DHT22;13444;50.562;7.262;2022-09-24T16:58:39;16.10;99.90
25550;DHT22;13444;50.562;7.262;2022-09-24T17:01:06;16.10;99.90
25550;DHT22;13444;50.562;7.262;2022-09-24T17:03:32;16.10;99.90
25550;DHT22;13444;50.562;7.262;2022-09-24T17:05:58;16.10;99.90
25550;DHT22;13444;50.562;7.262;2022-09-24T17:08:23;16.10;99.90
25550;DHT22;13444;50.562;7.262;2022-09-24T17:11:09;16.10;99.90
25550;DHT22;13444;50.562;7.262;2022-09-24T17:13:34;16.10;99.90
25550;DHT22;13444;50.562;7.262;2022-09-24T17:16:00;16.00;99.90
25550;DHT22;13444;50.562;7.262;2022-09-24T17:18:26;16.00;99.90
25550;DHT22;13444;50.562;7.262;2022-09-24T17:21:02;16.00;99.90
25550;DHT22;13444;50.562;7.262;2022-09-24T17:23:28;15.90;99.90
25550;DHT22;13444;50.562;7.262;2022-09-24T17:26:04;15.90;99.90
25550;DHT22;13444;50.562;7.262;2022-09-24T17:28:34;15.80;99.90